Time;durP1;ratioP1;P1;durP2;ratioP2;P2;SDS_P1;SDS_P2;PMS_P1;PMS_P2;Temp;Humidity;BMP_temperature;BMP_pressure;BME280_temperature;BME280_humidity;BME280_pressure;Samples;Min_cycle;Max_cycle;Signal;HPM_P1;HPM_P2
2022/08/17 00:03:56;;;;;;;6.20;5.73;;;22.70;70.40;;;;;;10460381;28;20197;-79
2022/08/17 00:09:00;;;;;;;11.10;6.20;;;22.70;71.30;;;;;;10480585;28;20282;-78
2022/08/17 00:14:07;;;;;;;6.20;5.80;;;22.70;70.70;;;;;;10469668;28;20213;-78
2022/08/17 00:19:12;;;;;;;5.70;5.30;;;22.70;71.00;;;;;;10507348;28;20216;-79
2022/08/17 00:24:15;;;;;;;6.90;6.40;;;22.70;71.00;;;;;;10502485;28;20199;-79
2022/08/17 00:29:18;;;;;;;6.80;5.50;;;22.60;70.30;;;;;;10499325;28;20664;-79
2022/08/17 00:34:21;;;;;;;6.33;5.83;;;22.60;70.90;;;;;;10500053;28;20688;-80
2022/08/17 00:39:23;;;;;;;6.87;6.40;;;22.60;70.50;;;;;;10482787;28;20213;-79
2022/08/17 00:44:26;;;;;;;7.17;6.40;;;22.50;70.70;;;;;;10495422;28;20281;-80
2022/08/17 00:49:29;;;;;;;6.53;6.03;;;22.50;71.10;;;;;;10496825;28;20224;-80
2022/08/17 00:54:35;;;;;;;6.20;5.80;;;22.40;71.40;;;;;;10497248;28;20276;-80
2022/08/17 00:59:42;;;;;;;6.80;6.30;;;22.40;71.40;;;;;;10496666;28;20216;-79
2022/08/17 01:04:47;;;;;;;6.40;5.90;;;22.40;71.30;;;;;;10484114;28;20224;-78
2022/08/17 01:09:50;;;;;;;6.77;6.27;;;22.30;71.40;;;;;;10487189;28;20225;-79
2022/08/17 01:14:53;;;;;;;6.67;6.20;;;22.30;72.10;;;;;;10481962;28;20259;-80
2022/08/17 01:19:56;;;;;;;7.10;6.50;;;22.20;71.40;;;;;;10463901;28;20232;-78
2022/08/17 01:25:02;;;;;;;6.87;6.30;;;22.20;71.70;;;;;;10500634;28;20219;-78
2022/08/17 01:30:08;;;;;;;5.93;5.60;;;22.20;71.90;;;;;;10464973;28;20354;-79
2022/08/17 01:35:10;;;;;;;6.67;5.87;;;22.10;72.00;;;;;;10498057;28;20279;-78
2022/08/17 01:40:21;;;;;;;7.43;6.77;;;22.10;73.10;;;;;;10482064;28;20196;-79
2022/08/17 01:45:26;;;;;;;6.73;6.27;;;22.10;72.80;;;;;;10512162;28;20239;-80
2022/08/17 01:50:31;;;;;;;7.87;7.13;;;22.10;72.00;;;;;;10483086;28;20613;-79
2022/08/17 01:55:40;;;;;;;6.20;5.80;;;22.10;73.20;;;;;;10461485;28;20216;-80
2022/08/17 02:00:44;;;;;;;7.13;6.57;;;22.00;72.80;;;;;;10489464;28;20192;-79
2022/08/17 02:05:48;;;;;;;6.77;6.17;;;21.90;72.70;;;;;;10504117;28;20307;-79
2022/08/17 02:10:52;;;;;;;6.53;6.03;;;21.90;73.80;;;;;;10507073;28;20228;-80
2022/08/17 02:15:54;;;;;;;6.33;5.93;;;21.90;72.10;;;;;;10507610;28;20732;-80
2022/08/17 02:20:56;;;;;;;6.77;6.30;;;21.80;72.30;;;;;;10503997;28;20694;-79
2022/08/17 02:26:00;;;;;;;6.27;5.90;;;21.80;72.00;;;;;;10504169;28;20213;-78
2022/08/17 02:31:05;;;;;;;6.30;5.90;;;21.80;72.80;;;;;;10483330;28;20196;-78
2022/08/17 02:36:08;;;;;;;8.17;6.73;;;21.80;73.10;;;;;;10480745;28;20278;-78
2022/08/17 02:41:12;;;;;;;6.30;5.80;;;21.80;73.50;;;;;;10498821;28;20193;-78
2022/08/17 02:46:14;;;;;;;5.90;5.60;;;21.80;72.70;;;;;;10476231;28;20220;-78
2022/08/17 02:51:18;;;;;;;7.20;6.57;;;21.80;72.40;;;;;;10489597;28;20201;-78
2022/08/17 02:56:21;;;;;;;6.23;5.83;;;21.80;72.60;;;;;;10500483;28;20221;-78
2022/08/17 03:01:23;;;;;;;6.03;5.73;;;21.80;72.50;;;;;;10471507;28;20193;-78
2022/08/17 03:06:27;;;;;;;6.90;6.40;;;21.70;73.90;;;;;;10500208;28;20220;-78
2022/08/17 03:11:30;;;;;;;6.90;6.30;;;21.70;72.80;;;;;;10502177;28;20270;-78
2022/08/17 03:16:32;;;;;;;6.23;5.83;;;21.80;72.50;;;;;;10494062;28;20225;-79
2022/08/17 03:21:35;;;;;;;5.83;5.53;;;21.70;74.00;;;;;;10497061;28;20722;-79
2022/08/17 03:26:38;;;;;;;7.47;6.87;;;21.70;73.60;;;;;;10477478;28;20234;-80
2022/08/17 03:31:40;;;;;;;7.03;6.60;;;21.70;73.40;;;;;;10475410;28;20573;-78
2022/08/17 03:36:42;;;;;;;6.80;6.20;;;21.70;73.50;;;;;;10473927;28;20223;-77
2022/08/17 03:41:46;;;;;;;7.20;6.70;;;21.80;74.30;;;;;;10487135;28;20201;-78
2022/08/17 03:57:29;;;;;;;7.00;6.57;;;21.80;73.60;;;;;;10467206;28;20239;-79
2022/08/17 04:02:33;;;;;;;7.40;6.90;;;21.70;73.80;;;;;;10500537;28;20534;-80
2022/08/17 04:07:35;;;;;;;7.67;7.10;;;21.70;74.30;;;;;;10494711;28;20222;-80
2022/08/17 04:12:47;;;;;;;7.37;6.97;;;21.70;73.40;;;;;;10485625;28;20274;-80
2022/08/17 04:17:50;;;;;;;7.90;7.30;;;21.60;73.70;;;;;;10505424;28;20228;-80
2022/08/17 04:22:57;;;;;;;8.40;7.90;;;21.60;73.90;;;;;;10494907;28;20330;-79
2022/08/17 04:28:01;;;;;;;7.50;6.80;;;21.50;74.40;;;;;;10475355;28;20594;-79
2022/08/17 04:33:07;;;;;;;7.57;7.13;;;21.50;74.40;;;;;;10470230;28;20240;-79
2022/08/17 04:38:11;;;;;;;6.13;5.63;;;21.50;74.50;;;;;;10468146;28;20702;-78
2022/08/17 04:43:17;;;;;;;7.10;6.70;;;21.50;74.20;;;;;;10450599;28;20197;-78
2022/08/17 04:48:19;;;;;;;7.67;7.17;;;21.60;73.30;;;;;;10490128;28;20307;-79
2022/08/17 04:53:22;;;;;;;7.70;7.17;;;21.50;73.80;;;;;;10452714;28;20204;-79
2022/08/17 04:58:25;;;;;;;7.37;6.67;;;21.50;74.00;;;;;;10470430;28;20247;-78
2022/08/17 05:03:28;;;;;;;7.83;7.40;;;21.50;74.30;;;;;;10476629;28;20284;-80
2022/08/17 05:08:30;;;;;;;8.43;7.50;;;21.50;74.40;;;;;;10479682;28;20215;-78
2022/08/17 05:13:33;;;;;;;8.90;7.27;;;21.60;73.70;;;;;;10485785;28;20224;-79
2022/08/17 05:18:37;;;;;;;8.03;7.53;;;21.70;74.00;;;;;;10489985;28;20231;-79
2022/08/17 05:23:40;;;;;;;8.63;7.93;;;21.70;74.40;;;;;;10473452;28;20199;-79
2022/08/17 05:28:44;;;;;;;7.53;6.93;;;21.70;75.30;;;;;;10486332;28;20247;-77
2022/08/17 05:33:46;;;;;;;8.00;7.47;;;21.80;74.90;;;;;;10486641;28;20204;-79
2022/08/17 05:38:49;;;;;;;8.40;7.63;;;21.90;74.30;;;;;;10487904;28;20228;-79
2022/08/17 05:43:52;;;;;;;9.63;8.73;;;22.00;75.20;;;;;;10473975;28;20202;-78
2022/08/17 05:48:58;;;;;;;18.50;10.10;;;22.10;74.90;;;;;;10491067;28;20741;-78
2022/08/17 05:54:11;;;;;;;11.17;10.13;;;22.10;74.40;;;;;;10485558;28;20719;-79
2022/08/17 05:59:21;;;;;;;8.17;7.47;;;22.30;73.50;;;;;;10446643;28;20232;-79
2022/08/17 06:04:36;;;;;;;9.93;9.23;;;22.40;75.20;;;;;;10489466;28;20219;-79
2022/08/17 06:09:45;;;;;;;9.47;8.47;;;22.60;75.20;;;;;;10473206;28;20767;-79
2022/08/17 06:15:06;;;;;;;9.67;8.97;;;22.70;74.60;;;;;;10493048;28;20636;-79
2022/08/17 06:20:11;;;;;;;9.07;8.50;;;22.90;74.00;;;;;;10477105;28;20242;-80
2022/08/17 06:25:16;;;;;;;10.73;9.63;;;22.90;74.30;;;;;;10477973;28;20211;-78
2022/08/17 06:30:23;;;;;;;9.60;8.90;;;23.00;74.70;;;;;;10497956;28;20205;-79
2022/08/17 06:35:33;;;;;;;8.00;7.57;;;23.00;74.40;;;;;;10472813;28;20224;-79
2022/08/17 06:40:56;;;;;;;9.30;8.60;;;23.10;74.40;;;;;;10479167;28;20604;-80
2022/08/17 06:46:06;;;;;;;9.43;8.60;;;23.20;74.70;;;;;;10472501;28;20778;-79
2022/08/17 06:51:17;;;;;;;11.57;10.57;;;23.30;74.90;;;;;;10478012;28;20196;-79
2022/08/17 06:56:31;;;;;;;11.33;10.20;;;23.60;76.10;;;;;;10493415;28;20220;-79
2022/08/17 07:01:39;;;;;;;12.17;11.37;;;23.90;73.60;;;;;;10495623;28;20212;-79
2022/08/17 07:06:47;;;;;;;13.80;11.37;;;24.10;72.50;;;;;;10492958;28;20207;-80
2022/08/17 07:11:53;;;;;;;11.03;10.23;;;24.30;72.70;;;;;;10492092;28;20198;-79
2022/08/17 07:16:59;;;;;;;10.60;9.80;;;24.60;73.80;;;;;;10487055;28;20228;-79
2022/08/17 07:22:13;;;;;;;10.00;9.30;;;24.90;72.10;;;;;;10507342;28;20607;-79
2022/08/17 07:27:20;;;;;;;9.83;8.83;;;25.00;70.80;;;;;;10513411;28;20228;-78
2022/08/17 07:32:30;;;;;;;10.00;9.30;;;25.10;68.50;;;;;;10501076;28;20207;-80
2022/08/17 07:37:33;;;;;;;9.60;8.90;;;25.10;66.90;;;;;;10483989;28;20228;-80
2022/08/17 07:42:35;;;;;;;9.87;9.27;;;25.30;67.00;;;;;;10500244;28;20203;-79
2022/08/17 07:53:14;;;;;;;9.23;8.30;;;26.00;66.00;;;;;;10498793;28;20690;-80
2022/08/17 07:58:18;;;;;;;8.97;8.47;;;26.10;66.10;;;;;;10482817;28;20247;-80
2022/08/17 08:03:25;;;;;;;9.87;9.27;;;26.20;65.00;;;;;;10509667;28;20557;-80
2022/08/17 08:08:32;;;;;;;9.07;8.50;;;26.40;66.10;;;;;;10504527;28;20219;-79
2022/08/17 08:13:34;;;;;;;11.10;10.30;;;26.50;65.40;;;;;;10489448;28;20208;-80
2022/08/17 08:18:44;;;;;;;9.50;8.70;;;26.60;64.60;;;;;;10488489;28;20231;-80
2022/08/17 08:23:52;;;;;;;9.33;8.73;;;26.80;64.20;;;;;;10499501;28;20272;-81
2022/08/17 08:29:05;;;;;;;9.87;9.13;;;26.90;63.10;;;;;;10500451;28;20220;-80
2022/08/17 08:34:17;;;;;;;9.87;9.17;;;27.00;63.10;;;;;;10484880;28;20200;-80
2022/08/17 08:39:23;;;;;;;9.80;9.20;;;26.90;62.90;;;;;;10494137;28;20227;-79
2022/08/17 08:44:35;;;;;;;10.63;9.90;;;26.80;62.80;;;;;;10490990;28;20672;-80
2022/08/17 08:50:03;;;;;;;9.47;8.87;;;26.60;64.10;;;;;;10495115;28;20246;-79
2022/08/17 08:55:11;;;;;;;10.13;9.33;;;26.40;65.40;;;;;;10498314;28;20219;-80
2022/08/17 09:00:17;;;;;;;10.20;9.50;;;26.20;66.50;;;;;;10501679;28;20283;-80
2022/08/17 09:05:35;;;;;;;9.73;9.03;;;26.10;68.30;;;;;;10497361;28;20232;-80
2022/08/17 09:10:55;;;;;;;10.97;9.83;;;26.00;68.40;;;;;;10496709;28;20200;-80
2022/08/17 09:16:00;;;;;;;10.00;9.00;;;25.90;67.10;;;;;;10498923;28;20228;-80
2022/08/17 09:21:11;;;;;;;10.70;9.83;;;25.90;70.80;;;;;;10509416;28;20211;-80
2022/08/17 09:26:21;;;;;;;10.40;9.80;;;25.80;74.50;;;;;;10503476;28;20247;-80
2022/08/17 09:31:34;;;;;;;13.13;11.90;;;25.70;76.00;;;;;;10480037;28;20620;-79
2022/08/17 09:36:44;;;;;;;11.13;10.33;;;25.70;80.20;;;;;;10477933;28;20213;-81
2022/08/17 09:41:52;;;;;;;11.07;10.20;;;25.50;79.60;;;;;;10494056;28;20222;-80
2022/08/17 09:47:00;;;;;;;12.67;11.57;;;25.40;82.20;;;;;;10500115;28;20228;-80
2022/08/17 09:52:10;;;;;;;12.33;11.23;;;25.20;86.30;;;;;;10502101;28;20385;-80
2022/08/17 09:57:42;;;;;;;11.63;10.90;;;25.10;86.00;;;;;;10477226;28;20228;-80
2022/08/17 10:03:27;;;;;;;11.43;10.63;;;25.10;85.10;;;;;;10478535;28;20203;-80
2022/08/17 10:08:39;;;;;;;11.23;10.43;;;25.00;84.80;;;;;;10465229;28;20242;-78
2022/08/17 10:13:45;;;;;;;12.17;11.30;;;24.80;87.10;;;;;;10500877;28;20236;-79
2022/08/17 10:19:00;;;;;;;11.40;10.50;;;24.80;88.80;;;;;;10494264;28;20221;-79
2022/08/17 10:29:34;;;;;;;11.23;10.53;;;25.30;88.20;;;;;;10489172;28;20236;-79
2022/08/17 10:35:08;;;;;;;10.10;9.40;;;25.60;85.70;;;;;;10491370;28;20239;-79
2022/08/17 10:40:24;;;;;;;9.87;9.10;;;25.70;83.60;;;;;;10514092;28;20259;-79
2022/08/17 10:45:33;;;;;;;10.53;9.73;;;25.90;84.80;;;;;;10479709;28;20244;-79
2022/08/17 10:50:58;;;;;;;9.93;9.27;;;26.10;83.10;;;;;;10507061;28;20201;-79
2022/08/17 10:56:41;;;;;;;9.10;8.50;;;26.30;78.00;;;;;;10507041;28;20247;-79
2022/08/17 11:02:12;;;;;;;8.63;8.03;;;26.20;75.10;;;;;;10510203;28;20239;-79
2022/08/17 11:07:26;;;;;;;9.70;9.07;;;26.20;79.90;;;;;;10469471;28;20242;-79
2022/08/17 11:12:39;;;;;;;10.20;8.70;;;26.20;77.50;;;;;;10512755;28;20200;-79
2022/08/17 11:18:01;;;;;;;8.37;7.83;;;26.00;76.50;;;;;;10512174;28;20252;-79
2022/08/17 11:23:24;;;;;;;8.10;7.60;;;25.80;76.80;;;;;;10507104;28;20200;-79
2022/08/17 11:28:33;;;;;;;8.53;7.93;;;25.80;77.10;;;;;;10502819;28;20235;-80
2022/08/17 11:33:58;;;;;;;8.73;8.23;;;25.80;74.50;;;;;;10456793;28;20200;-79
2022/08/17 11:39:05;;;;;;;8.80;8.20;;;25.60;75.00;;;;;;10471247;28;20209;-81
2022/08/17 11:44:36;;;;;;;9.00;8.50;;;25.60;75.60;;;;;;10483992;28;20203;-79
2022/08/17 11:55:46;;;;;;;8.10;7.60;;;25.30;76.50;;;;;;10491913;28;20200;-79
2022/08/17 12:00:56;;;;;;;7.80;7.40;;;25.30;77.40;;;;;;10499341;28;20234;-79
2022/08/17 12:06:04;;;;;;;8.37;7.87;;;25.30;77.60;;;;;;10464923;28;20245;-79
2022/08/17 12:11:09;;;;;;;9.20;8.47;;;25.40;76.80;;;;;;10490609;28;20212;-79
2022/08/17 12:16:16;;;;;;;8.00;7.33;;;25.50;77.00;;;;;;10442493;28;20217;-79
2022/08/17 12:21:39;;;;;;;8.20;7.60;;;25.60;77.10;;;;;;10454080;28;20186;-79
2022/08/17 12:26:42;;;;;;;8.43;7.87;;;25.80;76.00;;;;;;10454087;28;20243;-79
2022/08/17 12:31:49;;;;;;;7.80;7.40;;;26.00;77.20;;;;;;10493856;28;20671;-77
2022/08/17 12:36:57;;;;;;;7.13;6.60;;;26.20;73.90;;;;;;10438772;28;20749;-79
2022/08/17 12:42:01;;;;;;;9.97;7.83;;;26.40;73.30;;;;;;10491851;28;20253;-78
2022/08/17 12:47:13;;;;;;;8.83;8.23;;;26.50;71.00;;;;;;10455503;28;20205;-79
2022/08/17 12:52:23;;;;;;;7.63;7.23;;;26.70;73.70;;;;;;10494918;28;20302;-80
2022/08/17 12:57:31;;;;;;;8.23;7.47;;;26.80;73.50;;;;;;10495219;28;20213;-78
2022/08/17 13:02:46;;;;;;;8.07;7.50;;;26.80;69.20;;;;;;10495513;28;20212;-79
2022/08/17 13:07:49;;;;;;;8.07;7.63;;;26.90;63.80;;;;;;10441767;28;20586;-79
2022/08/17 13:12:52;;;;;;;7.67;7.27;;;27.10;66.50;;;;;;10494875;28;20191;-79
2022/08/17 13:18:06;;;;;;;8.80;8.20;;;27.10;63.70;;;;;;10489766;28;20220;-79
2022/08/17 13:23:20;;;;;;;6.67;6.27;;;27.10;64.10;;;;;;10440574;28;20536;-79
2022/08/17 13:28:26;;;;;;;8.37;7.70;;;26.90;63.40;;;;;;10497670;28;20299;-78
2022/08/17 13:33:31;;;;;;;6.87;6.43;;;26.90;63.30;;;;;;10485797;28;20213;-79
2022/08/17 13:38:42;;;;;;;7.07;6.60;;;26.90;65.30;;;;;;10458056;28;20216;-79
2022/08/17 13:43:48;;;;;;;8.40;7.77;;;26.90;65.80;;;;;;10469691;28;20694;-80
2022/08/17 13:49:01;;;;;;;8.03;5.93;;;26.90;65.70;;;;;;10447194;28;20231;-80
2022/08/17 13:54:18;;;;;;;7.40;6.90;;;26.90;65.40;;;;;;10494142;28;20643;-79
2022/08/17 13:59:43;;;;;;;9.30;8.60;;;26.80;65.60;;;;;;10504032;28;20216;-80
2022/08/17 14:04:48;;;;;;;8.90;8.30;;;26.70;64.30;;;;;;10471908;28;20250;-80
2022/08/17 14:09:53;;;;;;;6.90;6.40;;;26.80;66.50;;;;;;10482006;28;20208;-80
2022/08/17 14:14:57;;;;;;;7.90;7.30;;;26.70;62.40;;;;;;10494503;28;20732;-80
2022/08/17 14:20:01;;;;;;;7.60;7.17;;;26.70;61.80;;;;;;10463877;28;20224;-80
2022/08/17 14:25:03;;;;;;;8.00;7.50;;;26.80;64.00;;;;;;10507417;28;20283;-79
2022/08/17 14:30:07;;;;;;;7.97;7.57;;;26.90;60.10;;;;;;10502775;28;20220;-79
2022/08/17 14:35:13;;;;;;;7.03;6.63;;;27.00;59.40;;;;;;10481308;28;20201;-79
2022/08/17 14:40:19;;;;;;;7.67;7.07;;;27.20;59.10;;;;;;10479362;28;20216;-79
2022/08/17 14:45:21;;;;;;;6.90;6.43;;;27.20;56.60;;;;;;10477034;28;20572;-80
2022/08/17 14:50:25;;;;;;;7.03;6.53;;;27.20;58.50;;;;;;10460498;28;20193;-80
2022/08/17 14:55:28;;;;;;;6.50;6.20;;;27.10;60.00;;;;;;10506454;28;20207;-79
2022/08/17 15:00:30;;;;;;;8.07;7.47;;;27.00;64.10;;;;;;10514074;28;20213;-80
2022/08/17 15:05:35;;;;;;;6.93;6.53;;;26.90;62.30;;;;;;10491901;28;20220;-79
2022/08/17 15:10:37;;;;;;;7.17;6.67;;;26.90;59.90;;;;;;10474280;28;20586;-79
2022/08/17 15:15:39;;;;;;;7.53;7.00;;;26.90;59.10;;;;;;10492814;28;20237;-80
2022/08/17 15:20:44;;;;;;;8.10;7.50;;;26.90;59.90;;;;;;10476362;28;20357;-80
2022/08/17 15:25:48;;;;;;;7.20;6.77;;;26.90;62.10;;;;;;10469602;28;20236;-80
2022/08/17 15:30:51;;;;;;;6.07;5.67;;;26.80;61.20;;;;;;10476148;28;20185;-80
2022/08/17 15:35:57;;;;;;;7.07;6.40;;;26.80;58.70;;;;;;10474171;28;20228;-80
2022/08/17 15:40:59;;;;;;;6.80;6.40;;;26.80;60.20;;;;;;10495284;28;20217;-80
2022/08/17 15:46:03;;;;;;;6.97;6.57;;;26.80;62.00;;;;;;10478168;28;20296;-80
2022/08/17 15:51:08;;;;;;;7.50;6.90;;;26.70;61.50;;;;;;10496506;28;20235;-80
2022/08/17 15:56:12;;;;;;;6.73;6.33;;;26.70;65.00;;;;;;10487200;28;20220;-80
2022/08/17 16:01:16;;;;;;;7.20;6.50;;;26.70;62.10;;;;;;10504752;28;20223;-80
2022/08/17 16:06:19;;;;;;;7.20;6.70;;;26.60;63.90;;;;;;10476188;28;20209;-80
2022/08/17 16:11:22;;;;;;;6.23;5.73;;;26.60;60.30;;;;;;10498529;28;20632;-80
2022/08/17 16:16:24;;;;;;;6.63;6.23;;;26.60;62.60;;;;;;10478204;28;20256;-79
2022/08/17 16:21:29;;;;;;;7.20;6.70;;;26.60;64.60;;;;;;10476189;28;20209;-79
2022/08/17 16:26:32;;;;;;;6.63;6.23;;;26.60;66.90;;;;;;10467567;28;20228;-79
2022/08/17 16:31:36;;;;;;;7.00;6.40;;;26.60;67.50;;;;;;10475080;28;20196;-79
2022/08/17 16:36:40;;;;;;;7.00;6.40;;;26.60;64.80;;;;;;10466610;28;20239;-79
2022/08/17 16:41:45;;;;;;;6.43;6.03;;;26.50;64.60;;;;;;10442881;28;20224;-79
2022/08/17 16:46:49;;;;;;;6.70;6.30;;;26.50;65.20;;;;;;10467055;28;20697;-78
2022/08/17 16:51:59;;;;;;;6.83;6.43;;;26.60;64.90;;;;;;10461592;28;20193;-79
2022/08/17 16:57:03;;;;;;;6.87;6.40;;;26.50;65.20;;;;;;10475668;28;20239;-79
2022/08/17 17:02:09;;;;;;;6.90;6.50;;;26.40;68.00;;;;;;10492798;28;20211;-79
2022/08/17 17:07:34;;;;;;;7.17;6.57;;;26.40;67.30;;;;;;10482875;28;20208;-79
2022/08/17 17:12:39;;;;;;;8.00;7.40;;;26.40;67.90;;;;;;10460859;28;20239;-80
2022/08/17 17:17:42;;;;;;;8.13;7.33;;;26.30;68.10;;;;;;10472751;28;20213;-78
2022/08/17 17:22:53;;;;;;;8.10;7.40;;;26.30;72.10;;;;;;10476326;28;20248;-80
2022/08/17 17:28:01;;;;;;;7.80;7.30;;;26.20;71.10;;;;;;10503562;28;20228;-79
2022/08/17 17:33:06;;;;;;;8.90;8.30;;;26.00;72.70;;;;;;10481063;28;20200;-81
2022/08/17 17:38:15;;;;;;;7.73;7.23;;;25.90;72.20;;;;;;10474777;28;20221;-80
2022/08/17 17:43:21;;;;;;;7.77;7.23;;;25.80;71.80;;;;;;10453368;28;20277;-79
2022/08/17 17:48:23;;;;;;;8.70;8.07;;;25.80;68.50;;;;;;10476610;28;20213;-80
2022/08/17 17:53:35;;;;;;;6.90;6.50;;;25.90;68.20;;;;;;10490120;28;20284;-79
2022/08/17 17:58:53;;;;;;;7.93;7.30;;;25.80;68.20;;;;;;10458562;28;20224;-80
2022/08/17 18:04:16;;;;;;;7.13;6.60;;;25.80;68.50;;;;;;10452524;28;20224;-81
2022/08/17 18:09:28;;;;;;;6.63;6.00;;;25.70;67.20;;;;;;10441359;28;20315;-79
2022/08/17 18:14:41;;;;;;;6.80;6.40;;;25.60;68.50;;;;;;10462251;28;20212;-81
2022/08/17 18:19:45;;;;;;;8.00;7.50;;;25.50;68.90;;;;;;10453952;28;20247;-79
2022/08/17 18:24:54;;;;;;;8.40;7.60;;;25.40;69.20;;;;;;10484047;28;20204;-80
2022/08/17 18:29:58;;;;;;;8.60;7.83;;;25.40;70.00;;;;;;10483671;28;20220;-81
2022/08/17 18:35:26;;;;;;;8.50;7.90;;;25.30;71.40;;;;;;10483208;28;20197;-81
2022/08/17 18:40:39;;;;;;;8.07;7.37;;;25.10;71.20;;;;;;10495662;28;20220;-81
2022/08/17 18:45:45;;;;;;;8.40;7.70;;;25.00;71.50;;;;;;10480806;28;20225;-81
2022/08/17 18:50:48;;;;;;;9.13;8.53;;;25.00;71.40;;;;;;10473892;28;20235;-80
2022/08/17 18:55:51;;;;;;;7.67;7.03;;;24.90;72.60;;;;;;10502173;28;20297;-81
2022/08/17 19:00:53;;;;;;;7.23;6.73;;;24.80;72.00;;;;;;10500772;28;20223;-79
2022/08/17 19:06:14;;;;;;;8.27;7.57;;;24.80;72.60;;;;;;10505599;28;20311;-79
2022/08/17 19:11:23;;;;;;;7.83;7.33;;;24.70;72.20;;;;;;10466339;28;20204;-79
2022/08/17 19:16:31;;;;;;;8.77;7.97;;;24.70;71.20;;;;;;10453796;28;20609;-79
2022/08/17 19:21:37;;;;;;;8.67;7.97;;;24.70;71.60;;;;;;10482990;28;20311;-79
2022/08/17 19:26:44;;;;;;;8.23;7.63;;;24.60;72.90;;;;;;10478280;28;20284;-81
2022/08/17 19:31:47;;;;;;;8.80;8.13;;;24.60;74.50;;;;;;10481138;28;20200;-81
2022/08/17 19:36:56;;;;;;;9.37;8.37;;;24.60;74.10;;;;;;10494121;28;20276;-81
2022/08/17 19:42:07;;;;;;;8.70;8.20;;;24.60;73.70;;;;;;10503357;28;20327;-81
2022/08/17 19:47:17;;;;;;;9.67;8.57;;;24.60;73.80;;;;;;10494510;28;20219;-81
2022/08/17 19:52:36;;;;;;;8.70;8.10;;;24.50;74.30;;;;;;10477952;28;20612;-80
2022/08/17 19:57:51;;;;;;;8.23;7.30;;;24.40;74.90;;;;;;10507555;28;20218;-81
2022/08/17 20:02:58;;;;;;;8.10;7.60;;;24.40;74.90;;;;;;10468750;28;20201;-79
2022/08/17 20:08:06;;;;;;;9.10;8.27;;;24.40;74.60;;;;;;10474607;28;20212;-80
2022/08/17 20:13:13;;;;;;;8.67;7.97;;;24.40;75.30;;;;;;10470362;28;20221;-80
2022/08/17 20:18:23;;;;;;;14.23;8.13;;;24.30;75.60;;;;;;10472408;28;20224;-78
2022/08/17 20:23:45;;;;;;;8.83;8.03;;;24.30;75.60;;;;;;10452370;28;20204;-80
2022/08/17 20:29:19;;;;;;;8.97;8.37;;;24.20;75.90;;;;;;10459900;28;20247;-81
2022/08/17 20:34:32;;;;;;;8.80;7.93;;;24.20;76.50;;;;;;10515822;28;20196;-81
2022/08/17 20:39:38;;;;;;;9.47;8.77;;;24.10;76.60;;;;;;10462646;28;20213;-81
2022/08/17 20:44:42;;;;;;;7.40;6.90;;;24.10;76.60;;;;;;10446152;28;20590;-81
2022/08/17 20:49:52;;;;;;;8.60;7.80;;;24.00;76.70;;;;;;10462908;28;20655;-81
2022/08/17 20:54:57;;;;;;;7.80;7.30;;;24.00;76.90;;;;;;10460115;28;20283;-80
2022/08/17 21:00:13;;;;;;;7.50;6.90;;;24.00;76.40;;;;;;10505812;28;20273;-81
2022/08/17 21:05:31;;;;;;;8.23;7.57;;;23.90;76.70;;;;;;10469848;28;20216;-80
2022/08/17 21:10:37;;;;;;;8.40;7.77;;;23.90;75.90;;;;;;10505239;28;20203;-81
2022/08/17 21:15:47;;;;;;;7.50;7.00;;;23.90;75.70;;;;;;10466447;28;20224;-81
2022/08/17 21:21:12;;;;;;;8.20;7.50;;;23.80;76.10;;;;;;10483023;28;20217;-79
2022/08/17 21:26:27;;;;;;;8.00;7.40;;;23.80;76.60;;;;;;10484571;28;20337;-80
2022/08/17 21:31:33;;;;;;;7.87;7.27;;;23.80;76.70;;;;;;10487543;28;20184;-80
2022/08/17 21:36:38;;;;;;;7.90;7.30;;;23.80;77.10;;;;;;10426790;28;20335;-80
2022/08/17 21:41:51;;;;;;;7.50;7.00;;;23.80;77.20;;;;;;10468779;28;20258;-80
2022/08/17 21:46:54;;;;;;;8.00;7.40;;;23.90;77.20;;;;;;10455969;28;20208;-79
2022/08/17 21:51:57;;;;;;;8.00;7.50;;;23.90;76.80;;;;;;10444404;28;20279;-79
2022/08/17 21:57:01;;;;;;;8.00;7.30;;;24.00;76.70;;;;;;10493606;28;20256;-79
2022/08/17 22:02:06;;;;;;;8.40;7.80;;;24.00;77.80;;;;;;10487154;28;20278;-79
2022/08/17 22:07:12;;;;;;;8.90;8.20;;;23.90;80.10;;;;;;10466802;28;20743;-79
2022/08/17 22:12:17;;;;;;;8.27;7.67;;;23.90;79.60;;;;;;10468072;28;20221;-80
2022/08/17 22:17:21;;;;;;;8.10;7.40;;;23.90;78.60;;;;;;10463850;28;20295;-79
2022/08/17 22:22:32;;;;;;;8.47;7.67;;;23.90;80.50;;;;;;10502186;28;20658;-79
2022/08/17 22:27:49;;;;;;;10.77;7.67;;;23.80;80.70;;;;;;10495743;28;20225;-79
2022/08/17 22:32:51;;;;;;;7.20;6.70;;;23.70;81.90;;;;;;10472136;28;20254;-80
2022/08/17 22:37:55;;;;;;;8.40;7.80;;;23.60;82.80;;;;;;10471690;28;20235;-80
2022/08/17 22:42:58;;;;;;;8.23;7.73;;;23.40;85.00;;;;;;10490429;28;20197;-79
2022/08/17 22:48:01;;;;;;;7.40;6.90;;;23.30;85.70;;;;;;10451938;28;20225;-78
2022/08/17 23:04:06;;;;;;;11.57;7.00;;;23.10;83.30;;;;;;10482482;28;20201;-79
2022/08/17 23:09:09;;;;;;;7.40;6.80;;;23.10;85.10;;;;;;10474807;28;20266;-80
2022/08/17 23:14:13;;;;;;;8.10;7.60;;;23.00;86.60;;;;;;10464813;28;20197;-79
2022/08/17 23:19:17;;;;;;;7.90;7.30;;;22.90;87.70;;;;;;10475433;28;20274;-79
2022/08/17 23:24:24;;;;;;;8.30;7.70;;;22.70;89.90;;;;;;10489624;28;20663;-78
2022/08/17 23:29:28;;;;;;;8.93;8.10;;;22.40;90.00;;;;;;10498838;28;20315;-79
2022/08/17 23:34:30;;;;;;;8.10;7.60;;;22.30;91.00;;;;;;10481684;28;20193;-79
2022/08/17 23:39:34;;;;;;;8.80;8.20;;;22.20;91.30;;;;;;10458886;28;20236;-79
2022/08/17 23:44:38;;;;;;;8.70;8.20;;;22.20;91.40;;;;;;10480240;28;20201;-78
2022/08/17 23:49:40;;;;;;;9.53;8.83;;;22.10;91.70;;;;;;10463809;28;20221;-79
2022/08/17 23:54:46;;;;;;;9.13;8.47;;;22.10;92.20;;;;;;10454166;28;20207;-79
2022/08/17 23:59:48;;;;;;;9.60;8.63;;;22.10;91.60;;;;;;10496465;28;20270;-78
